createdAt,value
2018-10-12T00:00:07.355Z,11.97
2018-10-12T00:02:35.416Z,12.00
2018-10-12T00:05:03.485Z,12.30
2018-10-12T00:07:31.537Z,12.10
2018-10-12T00:09:59.619Z,12.67
2018-10-12T00:12:27.710Z,12.37
2018-10-12T00:14:55.764Z,12.13
2018-10-12T00:17:23.827Z,11.77
2018-10-12T00:19:51.884Z,13.60
2018-10-12T00:22:19.944Z,15.20
2018-10-12T00:24:48.044Z,13.20
2018-10-12T00:27:16.090Z,11.90
2018-10-12T00:29:44.156Z,12.33
2018-10-12T00:32:12.208Z,13.33
2018-10-12T00:34:40.288Z,12.53
2018-10-12T00:37:08.337Z,13.53
2018-10-12T00:39:36.392Z,12.70
2018-10-12T00:42:04.543Z,13.13
2018-10-12T00:44:32.613Z,13.10
2018-10-12T00:47:00.696Z,13.60
2018-10-12T00:49:30.165Z,12.93
2018-10-12T00:51:58.216Z,14.00
2018-10-12T00:54:26.280Z,13.63
2018-10-12T00:56:54.322Z,13.73
2018-10-12T00:59:22.397Z,13.80
2018-10-12T01:01:50.436Z,13.90
2018-10-12T01:04:18.609Z,13.97
2018-10-12T01:06:46.755Z,14.27
2018-10-12T01:09:14.746Z,14.20
2018-10-12T01:11:42.841Z,14.70
2018-10-12T01:14:10.896Z,14.30
2018-10-12T01:16:38.995Z,13.20
2018-10-12T01:19:07.065Z,13.47
2018-10-12T01:21:35.141Z,14.30
2018-10-12T01:24:03.202Z,14.07
2018-10-12T01:26:31.274Z,13.90
2018-10-12T01:28:59.353Z,14.40
2018-10-12T01:31:28.258Z,13.50
2018-10-12T01:33:56.327Z,13.30
2018-10-12T01:36:24.450Z,11.87
2018-10-12T01:38:52.744Z,12.60
2018-10-12T01:41:20.816Z,11.47
2018-10-12T01:43:48.909Z,14.07
2018-10-12T01:46:17.041Z,14.43
2018-10-12T01:48:46.780Z,11.23
2018-10-12T01:51:14.849Z,10.53
2018-10-12T01:53:42.908Z,10.93
2018-10-12T01:56:11.016Z,10.00
2018-10-12T01:58:39.080Z,10.83
2018-10-12T02:01:07.183Z,9.60
2018-10-12T02:03:35.316Z,9.90
2018-10-12T02:06:03.464Z,11.07
2018-10-12T02:08:31.544Z,10.63
2018-10-12T02:10:59.608Z,10.77
2018-10-12T02:13:27.667Z,10.33
2018-10-12T02:15:55.732Z,8.97
2018-10-12T02:18:23.868Z,9.60
2018-10-12T02:20:52.049Z,10.13
2018-10-12T02:23:20.108Z,9.60
2018-10-12T02:25:48.173Z,9.30
2018-10-12T02:28:16.220Z,9.00
2018-10-12T02:30:44.290Z,9.13
2018-10-12T02:33:12.340Z,9.17
2018-10-12T02:35:40.404Z,9.00
2018-10-12T02:38:08.460Z,9.40
2018-10-12T02:40:36.594Z,8.80
2018-10-12T02:43:04.666Z,8.90
2018-10-12T02:45:32.740Z,8.57
2018-10-12T02:48:00.826Z,9.10
2018-10-12T02:50:28.938Z,8.97
2018-10-12T02:52:57.068Z,8.23
2018-10-12T02:55:25.131Z,8.23
2018-10-12T02:57:53.190Z,7.77
2018-10-12T03:00:21.321Z,8.10
2018-10-12T03:02:49.377Z,7.73
2018-10-12T03:05:17.527Z,7.53
2018-10-12T03:07:45.589Z,8.43
2018-10-12T03:10:13.644Z,7.67
2018-10-12T03:12:41.708Z,7.60
2018-10-12T03:15:09.761Z,7.90
2018-10-12T03:17:37.834Z,7.40
2018-10-12T03:20:05.893Z,7.17
2018-10-12T03:22:33.975Z,7.13
2018-10-12T03:25:02.112Z,7.50
2018-10-12T03:27:30.244Z,7.72
2018-10-12T03:29:58.310Z,8.27
2018-10-12T03:32:26.385Z,8.10
2018-10-12T03:34:54.477Z,8.07
2018-10-12T03:37:22.609Z,8.73
2018-10-12T03:39:50.608Z,8.10
2018-10-12T03:42:18.672Z,8.57
2018-10-12T03:44:46.728Z,9.03
2018-10-12T03:47:14.852Z,8.83
2018-10-12T03:49:42.907Z,8.73
2018-10-12T03:52:11.524Z,9.40
2018-10-12T03:54:39.625Z,9.33
2018-10-12T03:57:07.908Z,9.83
2018-10-12T03:59:35.972Z,10.40
2018-10-12T04:02:04.127Z,10.53
2018-10-12T04:04:32.237Z,10.37
2018-10-12T04:07:00.306Z,11.10
2018-10-12T04:09:28.366Z,11.37
2018-10-12T04:11:56.441Z,11.73
2018-10-12T04:14:24.509Z,13.30
2018-10-12T04:16:52.592Z,13.47
2018-10-12T04:19:20.664Z,13.80
2018-10-12T04:21:48.751Z,13.40
2018-10-12T04:24:16.808Z,11.70
2018-10-12T04:26:44.885Z,13.07
2018-10-12T04:29:13.062Z,14.43
2018-10-12T04:31:41.135Z,14.13
2018-10-12T04:34:09.197Z,13.77
2018-10-12T04:36:37.273Z,14.07
2018-10-12T04:39:16.937Z,14.27
2018-10-12T04:41:45.017Z,13.67
2018-10-12T04:44:13.088Z,13.90
2018-10-12T04:46:42.525Z,12.60
2018-10-12T04:49:12.508Z,14.33
2018-10-12T04:51:51.301Z,11.83
2018-10-12T04:54:19.721Z,10.43
2018-10-12T04:56:48.317Z,11.30
2018-10-12T04:59:16.372Z,9.07
2018-10-12T05:01:44.468Z,9.73
2018-10-12T05:04:12.621Z,10.93
2018-10-12T05:06:40.712Z,11.00
2018-10-12T05:09:09.861Z,10.27
2018-10-12T05:11:38.033Z,9.07
2018-10-12T05:14:06.340Z,9.13
2018-10-12T05:16:35.012Z,10.53
2018-10-12T05:19:03.088Z,10.83
2018-10-12T05:21:31.427Z,10.97
2018-10-12T05:23:59.496Z,11.33
2018-10-12T05:26:27.555Z,11.07
2018-10-12T05:28:55.682Z,11.77
2018-10-12T05:31:23.748Z,10.53
2018-10-12T05:33:51.926Z,10.00
2018-10-12T05:36:20.008Z,9.53
2018-10-12T05:38:48.097Z,11.70
2018-10-12T05:41:16.197Z,11.10
2018-10-12T05:43:44.424Z,11.27
2018-10-12T05:46:12.429Z,9.53
2018-10-12T05:48:52.057Z,10.27
2018-10-12T05:51:20.078Z,9.77
2018-10-12T05:53:48.468Z,9.33
2018-10-12T05:56:21.281Z,9.00
2018-10-12T05:58:49.434Z,9.13
2018-10-12T06:01:17.514Z,9.53
2018-10-12T06:03:45.573Z,8.67
2018-10-12T06:06:13.628Z,8.87
2018-10-12T06:08:42.364Z,9.83
2018-10-12T06:11:10.431Z,9.10
2018-10-12T06:13:38.610Z,9.90
2018-10-12T06:16:06.904Z,8.97
2018-10-12T06:18:34.976Z,8.43
2018-10-12T06:21:03.052Z,9.80
2018-10-12T06:23:31.123Z,9.08
2018-10-12T06:25:59.172Z,9.05
2018-10-12T06:28:27.323Z,10.98
2018-10-12T06:30:55.392Z,10.30
2018-10-12T06:33:23.474Z,12.95
2018-10-12T06:35:51.557Z,16.10
2018-10-12T06:38:20.463Z,12.50
2018-10-12T06:40:48.542Z,16.10
2018-10-12T06:43:16.674Z,13.93
2018-10-12T06:45:44.745Z,14.25
2018-10-12T06:48:12.824Z,12.40
2018-10-12T06:50:41.764Z,10.95
2018-10-12T06:53:09.970Z,10.03
2018-10-12T06:55:38.088Z,9.90
2018-10-12T06:58:06.349Z,10.00
2018-10-12T07:00:34.612Z,10.93
2018-10-12T07:03:02.774Z,9.75
2018-10-12T07:05:30.938Z,9.70
2018-10-12T07:07:59.094Z,9.10
2018-10-12T07:10:27.231Z,9.00
2018-10-12T07:12:55.336Z,9.40
2018-10-12T07:15:23.468Z,8.58
2018-10-12T07:17:54.465Z,8.88
2018-10-12T07:20:22.591Z,8.50
2018-10-12T07:22:50.715Z,8.55
2018-10-12T07:25:18.856Z,7.30
2018-10-12T07:27:47.102Z,6.53
2018-10-12T07:30:15.228Z,7.28
2018-10-12T07:32:44.691Z,7.33
2018-10-12T07:35:12.843Z,7.72
2018-10-12T07:37:41.023Z,7.87
2018-10-12T07:40:09.218Z,7.45
2018-10-12T07:42:37.670Z,7.40
2018-10-12T07:45:06.017Z,7.72
2018-10-12T07:47:34.422Z,8.78
2018-10-12T07:50:02.324Z,7.97
2018-10-12T07:52:30.455Z,9.78
2018-10-12T07:54:58.677Z,8.88
2018-10-12T07:57:30.508Z,7.85
2018-10-12T07:59:59.239Z,7.58
2018-10-12T08:02:27.329Z,6.35
2018-10-12T08:04:55.507Z,6.58
2018-10-12T08:07:23.610Z,6.70
2018-10-12T08:09:51.772Z,6.42
2018-10-12T08:12:19.928Z,6.90
2018-10-12T08:14:48.243Z,5.78
2018-10-12T08:17:16.840Z,5.97
2018-10-12T08:19:45.376Z,5.70
2018-10-12T08:22:14.044Z,6.50
2018-10-12T08:24:42.489Z,6.47
2018-10-12T08:27:11.001Z,5.85
2018-10-12T08:29:39.519Z,5.85
2018-10-12T08:32:07.861Z,5.33
2018-10-12T08:34:36.093Z,5.45
2018-10-12T08:37:04.255Z,5.80
2018-10-12T08:39:32.938Z,5.65
2018-10-12T08:42:01.271Z,5.20
2018-10-12T08:44:29.602Z,4.67
2018-10-12T08:46:57.813Z,5.35
2018-10-12T08:49:29.629Z,5.67
2018-10-12T08:51:58.006Z,4.60
2018-10-12T08:54:26.485Z,5.95
2018-10-12T08:56:54.699Z,5.12
2018-10-12T08:59:23.157Z,4.83
2018-10-12T09:01:51.379Z,5.35
2018-10-12T09:04:19.734Z,5.08
2018-10-12T09:06:47.867Z,5.20
2018-10-12T09:09:16.154Z,4.35
2018-10-12T09:11:44.280Z,4.47
2018-10-12T09:14:12.517Z,5.17
2018-10-12T09:16:40.684Z,5.60
2018-10-12T09:19:08.853Z,5.95
2018-10-12T09:21:36.998Z,4.78
2018-10-12T09:24:05.112Z,5.60
2018-10-12T09:26:33.241Z,4.85
2018-10-12T09:29:01.410Z,5.20
2018-10-12T09:31:29.573Z,5.28
2018-10-12T09:33:57.692Z,4.72
2018-10-12T09:36:25.800Z,4.85
2018-10-12T09:38:53.984Z,5.92
2018-10-12T09:41:22.129Z,5.70
2018-10-12T09:43:50.343Z,5.35
2018-10-12T09:46:18.512Z,4.87
2018-10-12T09:48:46.650Z,6.25
2018-10-12T09:51:14.809Z,5.10
2018-10-12T09:53:42.935Z,4.80
2018-10-12T09:56:11.109Z,5.33
2018-10-12T09:58:39.258Z,6.60
2018-10-12T10:01:12.672Z,6.10
2018-10-12T10:03:46.154Z,5.75
2018-10-12T10:06:14.298Z,4.90
2018-10-12T10:08:42.679Z,5.20
2018-10-12T10:11:10.702Z,5.05
2018-10-12T10:13:38.915Z,4.97
2018-10-12T10:16:07.113Z,5.03
2018-10-12T10:18:35.433Z,4.22
2018-10-12T10:21:03.634Z,4.90
2018-10-12T10:23:31.675Z,4.72
2018-10-12T10:25:59.827Z,4.50
2018-10-12T10:28:27.932Z,4.90
2018-10-12T10:30:56.037Z,4.83
2018-10-12T10:33:24.190Z,5.05
2018-10-12T10:35:52.317Z,5.17
2018-10-12T10:38:20.643Z,4.62
2018-10-12T10:40:48.773Z,4.40
2018-10-12T10:43:17.092Z,5.00
2018-10-12T10:45:45.378Z,4.30
2018-10-12T10:48:13.621Z,4.78
2018-10-12T10:50:41.846Z,5.20
2018-10-12T10:53:09.992Z,4.67
2018-10-12T10:55:38.249Z,4.78
2018-10-12T10:58:07.019Z,4.47
2018-10-12T11:00:35.190Z,4.65
2018-10-12T11:03:03.361Z,4.75
2018-10-12T11:05:31.582Z,4.50
2018-10-12T11:07:59.845Z,4.70
2018-10-12T11:10:28.069Z,4.58
2018-10-12T11:12:56.433Z,3.95
2018-10-12T11:15:24.511Z,4.33
2018-10-12T11:17:52.636Z,3.45
2018-10-12T11:20:20.849Z,3.87
2018-10-12T11:22:48.981Z,4.85
2018-10-12T11:25:17.117Z,4.10
2018-10-12T11:27:45.248Z,4.42
2018-10-12T11:30:13.388Z,3.95
2018-10-12T11:32:41.583Z,3.55
2018-10-12T11:35:09.666Z,3.58
2018-10-12T11:37:38.129Z,3.72
2018-10-12T11:40:06.779Z,3.58
2018-10-12T11:42:46.301Z,3.75
2018-10-12T11:45:14.549Z,3.08
2018-10-12T11:47:42.817Z,3.45
2018-10-12T11:50:10.929Z,3.90
2018-10-12T11:52:39.069Z,4.08
2018-10-12T11:55:07.277Z,3.30
2018-10-12T11:57:35.391Z,3.92
2018-10-12T12:00:03.521Z,3.80
2018-10-12T12:02:31.748Z,3.22
2018-10-12T12:04:59.853Z,2.95
2018-10-12T12:07:28.011Z,4.22
2018-10-12T12:09:56.197Z,3.42
2018-10-12T12:12:24.435Z,4.03
2018-10-12T12:14:52.643Z,4.05
2018-10-12T12:17:21.079Z,4.20
2018-10-12T12:19:49.215Z,4.37
2018-10-12T12:22:17.342Z,3.92
2018-10-12T12:24:45.594Z,4.40
2018-10-12T12:27:14.189Z,3.87
2018-10-12T12:29:42.305Z,3.42
2018-10-12T12:32:10.439Z,3.90
2018-10-12T12:34:38.664Z,4.28
2018-10-12T12:37:07.095Z,4.65
2018-10-12T12:39:38.362Z,5.17
2018-10-12T12:42:06.574Z,4.72
2018-10-12T12:44:34.727Z,3.47
2018-10-12T12:47:02.899Z,3.02
2018-10-12T12:49:34.096Z,2.95
2018-10-12T12:52:02.047Z,3.52
2018-10-12T12:54:30.167Z,3.52
2018-10-12T12:56:58.329Z,3.83
2018-10-12T12:59:26.440Z,3.55
2018-10-12T13:01:54.625Z,3.47
2018-10-12T13:04:22.946Z,3.27
2018-10-12T13:06:50.810Z,3.62
2018-10-12T13:09:18.929Z,3.45
2018-10-12T13:11:47.572Z,4.08
2018-10-12T13:14:15.750Z,4.12
2018-10-12T13:16:43.860Z,3.80
2018-10-12T13:19:11.980Z,3.60
2018-10-12T13:21:40.080Z,3.20
2018-10-12T13:24:08.213Z,3.33
2018-10-12T13:26:36.398Z,4.42
2018-10-12T13:29:04.938Z,3.72
2018-10-12T13:31:33.374Z,3.65
2018-10-12T13:34:01.624Z,3.80
2018-10-12T13:36:30.132Z,3.72
2018-10-12T13:38:58.271Z,3.30
2018-10-12T13:41:26.397Z,3.10
2018-10-12T13:43:54.609Z,4.05
2018-10-12T13:46:22.873Z,3.30
2018-10-12T13:48:50.973Z,4.17
2018-10-12T13:51:19.376Z,3.80
2018-10-12T13:53:47.557Z,3.72
2018-10-12T13:56:15.717Z,3.50
2018-10-12T13:58:43.971Z,3.92
2018-10-12T14:01:12.114Z,3.58
2018-10-12T14:03:40.605Z,3.95
2018-10-12T14:06:08.778Z,3.70
2018-10-12T14:08:36.907Z,3.60
2018-10-12T14:11:05.027Z,3.20
2018-10-12T14:13:33.158Z,3.45
2018-10-12T14:16:08.096Z,3.90
2018-10-12T14:18:36.289Z,3.22
2018-10-12T14:21:04.382Z,3.70
2018-10-12T14:23:32.528Z,4.42
2018-10-12T14:26:00.673Z,4.42
2018-10-12T14:28:28.812Z,3.90
2018-10-12T14:30:56.999Z,3.33
2018-10-12T14:33:25.260Z,3.92
2018-10-12T14:35:53.435Z,3.92
2018-10-12T14:38:21.624Z,3.55
2018-10-12T14:40:49.899Z,3.67
2018-10-12T14:43:18.057Z,3.25
2018-10-12T14:45:46.144Z,3.02
2018-10-12T14:48:15.333Z,3.25
2018-10-12T14:50:43.509Z,3.90
2018-10-12T14:53:11.703Z,3.40
2018-10-12T14:55:39.862Z,3.62
2018-10-12T14:58:22.613Z,3.37
2018-10-12T15:00:50.774Z,3.47
2018-10-12T15:03:18.938Z,3.47
2018-10-12T15:05:47.126Z,4.05
2018-10-12T15:08:15.335Z,4.03
2018-10-12T15:10:43.483Z,3.67
2018-10-12T15:13:11.708Z,5.12
2018-10-12T15:15:40.007Z,3.83
2018-10-12T15:18:08.277Z,3.60
2018-10-12T15:20:36.385Z,3.90
2018-10-12T15:23:04.591Z,3.25
2018-10-12T15:25:32.785Z,4.12
2018-10-12T15:28:01.184Z,3.50
2018-10-12T15:30:29.360Z,4.10
2018-10-12T15:32:57.545Z,4.45
2018-10-12T15:35:25.893Z,3.75
2018-10-12T15:37:54.106Z,4.15
2018-10-12T15:40:22.314Z,3.98
2018-10-12T15:42:50.504Z,3.58
2018-10-12T15:45:18.640Z,3.60
2018-10-12T15:47:46.913Z,3.35
2018-10-12T15:50:15.066Z,3.30
2018-10-12T15:52:43.228Z,3.70
2018-10-12T15:55:11.455Z,4.35
2018-10-12T15:57:39.589Z,3.17
2018-10-12T16:00:09.275Z,3.67
2018-10-12T16:02:37.452Z,3.15
2018-10-12T16:05:05.653Z,3.37
2018-10-12T16:07:33.868Z,3.20
2018-10-12T16:10:03.400Z,3.35
2018-10-12T16:12:31.522Z,3.67
2018-10-12T16:14:59.781Z,4.20
2018-10-12T16:17:27.945Z,3.83
2018-10-12T16:19:56.150Z,4.05
2018-10-12T16:22:24.419Z,3.85
2018-10-12T16:25:03.965Z,3.70
2018-10-12T16:27:32.200Z,4.53
2018-10-12T16:30:00.458Z,4.70
2018-10-12T16:32:28.594Z,4.30
2018-10-12T16:34:56.775Z,3.42
2018-10-12T16:37:24.905Z,3.90
2018-10-12T16:39:53.068Z,3.95
2018-10-12T16:42:21.233Z,3.87
2018-10-12T16:44:49.446Z,4.08
2018-10-12T16:47:17.668Z,4.22
2018-10-12T16:49:45.857Z,4.25
2018-10-12T16:52:14.100Z,4.33
2018-10-12T16:54:42.231Z,4.65
2018-10-12T16:57:10.370Z,5.15
2018-10-12T16:59:38.521Z,4.87
2018-10-12T17:02:06.669Z,5.28
2018-10-12T17:04:34.944Z,4.62
2018-10-12T17:07:03.078Z,5.17
2018-10-12T17:09:31.300Z,4.47
2018-10-12T17:11:59.497Z,5.05
2018-10-12T17:14:27.626Z,6.40
2018-10-12T17:17:03.132Z,5.62
2018-10-12T17:19:31.358Z,5.42
2018-10-12T17:21:59.526Z,5.20
2018-10-12T17:24:27.777Z,6.08
2018-10-12T17:26:56.184Z,5.78
2018-10-12T17:29:24.444Z,5.87
2018-10-12T17:31:52.729Z,5.17
2018-10-12T17:34:51.871Z,5.22
2018-10-12T17:37:20.048Z,5.50
2018-10-12T17:39:48.335Z,6.05
2018-10-12T17:42:17.608Z,5.58
2018-10-12T17:44:46.108Z,6.05
2018-10-12T17:47:15.262Z,5.85
2018-10-12T17:49:43.626Z,5.70
2018-10-12T17:52:11.779Z,6.10
2018-10-12T17:54:39.911Z,6.08
2018-10-12T17:57:08.177Z,5.72
2018-10-12T17:59:36.381Z,5.80
2018-10-12T18:02:04.664Z,6.40
2018-10-12T18:04:33.212Z,6.35
2018-10-12T18:07:01.459Z,6.40
2018-10-12T18:09:29.709Z,6.03
2018-10-12T18:11:57.876Z,5.72
2018-10-12T18:14:26.028Z,6.50
2018-10-12T18:16:54.185Z,6.33
2018-10-12T18:19:22.320Z,6.17
2018-10-12T18:21:50.517Z,6.35
2018-10-12T18:24:18.624Z,5.92
2018-10-12T18:26:46.737Z,6.28
2018-10-12T18:29:15.093Z,6.45
2018-10-12T18:31:43.237Z,6.08
2018-10-12T18:34:11.340Z,5.70
2018-10-12T18:36:39.520Z,5.22
2018-10-12T18:39:09.070Z,5.53
2018-10-12T18:41:37.177Z,5.35
2018-10-12T18:44:05.462Z,5.17
2018-10-12T18:46:34.231Z,5.80
2018-10-12T18:49:02.455Z,6.45
2018-10-12T18:51:30.565Z,5.85
2018-10-12T18:53:58.667Z,5.72
2018-10-12T18:56:26.730Z,5.37
2018-10-12T18:58:54.865Z,6.00
2018-10-12T19:01:23.075Z,7.05
2018-10-12T19:03:51.164Z,5.20
2018-10-12T19:06:19.299Z,5.87
2018-10-12T19:08:47.384Z,6.60
2018-10-12T19:11:15.440Z,6.80
2018-10-12T19:13:43.557Z,5.47
2018-10-12T19:16:11.609Z,5.75
2018-10-12T19:18:39.685Z,5.83
2018-10-12T19:21:07.740Z,6.15
2018-10-12T19:23:37.450Z,6.40
2018-10-12T19:26:06.942Z,6.12
2018-10-12T19:28:35.461Z,6.72
2018-10-12T19:31:04.882Z,6.05
2018-10-12T19:33:33.168Z,6.87
2018-10-12T19:36:01.236Z,5.90
2018-10-12T19:38:29.373Z,5.75
2018-10-12T19:40:57.530Z,5.67
2018-10-12T19:43:25.750Z,6.37
2018-10-12T19:45:53.923Z,6.12
2018-10-12T19:48:21.980Z,5.20
2018-10-12T19:50:50.077Z,5.83
2018-10-12T19:53:18.197Z,6.28
2018-10-12T19:55:46.252Z,6.55
2018-10-12T19:58:14.324Z,6.78
2018-10-12T20:00:42.384Z,5.72
2018-10-12T20:03:10.460Z,5.70
2018-10-12T20:05:38.604Z,6.83
2018-10-12T20:08:06.933Z,5.83
2018-10-12T20:10:35.196Z,6.35
2018-10-12T20:13:03.169Z,5.58
2018-10-12T20:15:31.249Z,6.67
2018-10-12T20:17:59.446Z,6.15
2018-10-12T20:20:27.698Z,6.03
2018-10-12T20:22:55.760Z,5.62
2018-10-12T20:25:23.831Z,5.90
2018-10-12T20:27:51.945Z,6.53
2018-10-12T20:30:20.188Z,5.85
2018-10-12T20:32:48.244Z,6.15
2018-10-12T20:35:16.304Z,6.03
2018-10-12T20:37:44.406Z,5.80
2018-10-12T20:40:12.564Z,5.90
2018-10-12T20:42:40.660Z,5.90
2018-10-12T20:45:08.743Z,5.78
2018-10-12T20:47:36.808Z,6.15
2018-10-12T20:50:04.893Z,6.22
2018-10-12T20:52:33.024Z,5.78
2018-10-12T20:55:01.330Z,6.08
2018-10-12T20:57:29.392Z,5.92
2018-10-12T20:59:57.473Z,6.22
2018-10-12T21:02:25.544Z,5.67
2018-10-12T21:04:53.614Z,5.72
2018-10-12T21:07:21.684Z,5.85
2018-10-12T21:09:50.024Z,6.35
2018-10-12T21:12:18.089Z,5.60
2018-10-12T21:14:46.152Z,5.70
2018-10-12T21:17:14.281Z,5.92
2018-10-12T21:19:42.353Z,5.55
2018-10-12T21:22:10.441Z,6.08
2018-10-12T21:24:38.496Z,5.85
2018-10-12T21:27:06.572Z,5.33
2018-10-12T21:29:34.636Z,5.80
2018-10-12T21:32:02.736Z,5.70
2018-10-12T21:34:30.792Z,5.22
2018-10-12T21:36:58.873Z,6.17
2018-10-12T21:39:26.936Z,5.58
2018-10-12T21:41:55.012Z,5.30
2018-10-12T21:44:23.161Z,5.47
2018-10-12T21:46:51.268Z,6.20
2018-10-12T21:49:19.305Z,6.17
2018-10-12T21:51:47.380Z,5.45
2018-10-12T21:54:15.445Z,5.65
2018-10-12T21:56:43.544Z,5.92
2018-10-12T21:59:11.817Z,5.85
2018-10-12T22:01:39.917Z,6.37
2018-10-12T22:04:08.145Z,5.72
2018-10-12T22:06:36.209Z,5.85
2018-10-12T22:09:07.062Z,5.45
2018-10-12T22:11:35.148Z,5.87
2018-10-12T22:14:03.470Z,6.03
2018-10-12T22:16:31.488Z,6.20
2018-10-12T22:18:59.572Z,6.50
2018-10-12T22:21:27.768Z,5.60
2018-10-12T22:23:55.964Z,5.33
2018-10-12T22:26:24.016Z,5.28
2018-10-12T22:28:52.124Z,6.22
2018-10-12T22:31:20.185Z,5.95
2018-10-12T22:33:47.479Z,5.90
2018-10-12T22:36:15.504Z,5.80
2018-10-12T22:38:43.644Z,6.08
2018-10-12T22:41:11.709Z,6.08
2018-10-12T22:43:39.786Z,5.87
2018-10-12T22:46:07.896Z,5.42
2018-10-12T22:48:35.964Z,5.33
2018-10-12T22:51:04.028Z,5.40
2018-10-12T22:53:32.104Z,5.60
2018-10-12T22:56:00.160Z,5.47
2018-10-12T22:58:28.240Z,6.47
2018-10-12T23:00:56.293Z,6.05
2018-10-12T23:03:24.368Z,6.47
2018-10-12T23:05:52.427Z,5.62
2018-10-12T23:08:20.503Z,6.12
2018-10-12T23:10:48.560Z,5.58
2018-10-12T23:13:16.623Z,6.00
2018-10-12T23:15:44.691Z,5.47
2018-10-12T23:18:12.768Z,5.47
2018-10-12T23:20:40.833Z,6.03
2018-10-12T23:23:08.918Z,6.58
2018-10-12T23:25:36.976Z,6.17
2018-10-12T23:28:05.098Z,5.72
2018-10-12T23:30:33.155Z,5.83
2018-10-12T23:33:12.690Z,4.97
2018-10-12T23:35:40.744Z,5.47
2018-10-12T23:38:08.795Z,5.58
2018-10-12T23:40:36.866Z,5.22
2018-10-12T23:43:04.928Z,5.28
2018-10-12T23:45:33.056Z,5.22
2018-10-12T23:48:01.216Z,5.50
2018-10-12T23:50:29.293Z,5.75
2018-10-12T23:52:57.349Z,5.67
2018-10-12T23:55:25.417Z,5.65
2018-10-12T23:57:53.481Z,4.90
